Time;durP1;ratioP1;P1;durP2;ratioP2;P2;SDS_P1;SDS_P2;PMS_P1;PMS_P2;Temp;Humidity;BMP_temperature;BMP_pressure;BME280_temperature;BME280_humidity;BME280_pressure;Samples;Min_cycle;Max_cycle;Signal;HPM_P1;HPM_P2
2021/03/04 00:00:10;;;;;;;25.23;3.53;;;;;;;;;;5069741;28;20024;-36
2021/03/04 00:02:39;;;;;;;18.57;3.40;;;;;;;;;;5068984;28;20025;-38
2021/03/04 00:05:07;;;;;;;21.30;3.45;;;;;;;;;;5071853;28;20419;-38
2021/03/04 00:07:34;;;;;;;33.75;3.83;;;;;;;;;;5069261;28;20017;-39
2021/03/04 00:10:01;;;;;;;42.47;5.18;;;;;;;;;;5068991;28;20029;-36
2021/03/04 00:12:28;;;;;;;22.58;4.18;;;;;;;;;;5067936;28;20036;-37
2021/03/04 00:14:55;;;;;;;29.77;3.97;;;;;;;;;;5069223;28;20036;-36
2021/03/04 00:17:22;;;;;;;23.75;3.72;;;;;;;;;;5063962;28;20237;-38
2021/03/04 00:19:49;;;;;;;21.42;3.28;;;;;;;;;;5072174;28;20035;-37
2021/03/04 00:22:16;;;;;;;23.88;3.70;;;;;;;;;;5071378;28;20145;-38
2021/03/04 00:24:43;;;;;;;37.35;4.28;;;;;;;;;;5070612;28;20017;-37
2021/03/04 00:27:10;;;;;;;24.95;4.25;;;;;;;;;;5071819;28;20029;-36
2021/03/04 00:29:37;;;;;;;33.95;4.72;;;;;;;;;;5069936;28;20033;-38
2021/03/04 00:32:04;;;;;;;28.85;3.70;;;;;;;;;;5069947;28;20028;-37
2021/03/04 00:34:31;;;;;;;28.38;4.20;;;;;;;;;;5071030;28;20067;-36
2021/03/04 00:36:58;;;;;;;23.45;4.60;;;;;;;;;;5071511;28;20594;-38
2021/03/04 00:39:25;;;;;;;31.88;5.30;;;;;;;;;;5070808;28;20052;-38
2021/03/04 00:41:52;;;;;;;30.38;5.63;;;;;;;;;;5071397;28;20070;-37
2021/03/04 00:44:19;;;;;;;35.47;6.00;;;;;;;;;;5069797;28;20565;-39
2021/03/04 00:46:46;;;;;;;33.28;5.57;;;;;;;;;;5070784;28;20059;-37
2021/03/04 00:49:13;;;;;;;24.40;4.82;;;;;;;;;;5071295;28;20012;-36
2021/03/04 00:51:40;;;;;;;34.90;4.38;;;;;;;;;;5071039;28;20033;-39
2021/03/04 00:54:07;;;;;;;29.52;4.60;;;;;;;;;;5070892;28;20028;-38
2021/03/04 00:56:35;;;;;;;28.95;4.93;;;;;;;;;;5069663;28;20028;-36
2021/03/04 00:59:02;;;;;;;27.05;4.82;;;;;;;;;;5069423;28;20090;-40
2021/03/04 01:01:29;;;;;;;18.77;4.45;;;;;;;;;;5069967;28;20551;-38
2021/03/04 01:03:56;;;;;;;21.23;4.40;;;;;;;;;;5070722;28;20016;-37
2021/03/04 01:06:23;;;;;;;28.48;4.18;;;;;;;;;;5070492;28;20020;-37
2021/03/04 01:08:50;;;;;;;19.63;3.72;;;;;;;;;;5071150;28;20028;-36
2021/03/04 01:11:17;;;;;;;16.80;3.90;;;;;;;;;;5070018;28;20070;-36
2021/03/04 01:13:44;;;;;;;27.75;4.43;;;;;;;;;;5070673;28;20503;-39
2021/03/04 01:16:11;;;;;;;22.17;4.10;;;;;;;;;;5070671;28;20033;-36
2021/03/04 01:18:38;;;;;;;20.08;4.20;;;;;;;;;;5069916;28;20031;-38
2021/03/04 01:21:06;;;;;;;22.60;4.70;;;;;;;;;;5071370;28;20028;-36
2021/03/04 01:23:33;;;;;;;27.92;4.47;;;;;;;;;;5070715;28;20103;-37
2021/03/04 01:26:00;;;;;;;30.67;5.85;;;;;;;;;;5065823;28;20115;-37
2021/03/04 01:28:27;;;;;;;18.45;4.53;;;;;;;;;;5065449;28;20040;-38
2021/03/04 01:30:55;;;;;;;35.75;5.50;;;;;;;;;;5062824;28;20057;-38
2021/03/04 01:33:22;;;;;;;22.55;4.80;;;;;;;;;;5069354;28;20028;-37
2021/03/04 01:35:49;;;;;;;15.90;4.13;;;;;;;;;;5070375;28;20111;-37
2021/03/04 01:38:16;;;;;;;18.90;4.05;;;;;;;;;;5069242;28;20025;-37
2021/03/04 01:40:44;;;;;;;21.85;4.18;;;;;;;;;;5070750;28;20016;-37
2021/03/04 01:43:11;;;;;;;22.50;4.82;;;;;;;;;;5069814;28;20012;-36
2021/03/04 01:45:38;;;;;;;22.63;4.60;;;;;;;;;;5070107;28;20548;-37
2021/03/04 01:48:06;;;;;;;19.10;4.72;;;;;;;;;;5068322;28;20025;-37
2021/03/04 01:50:33;;;;;;;19.33;4.57;;;;;;;;;;5070200;28;20029;-37
2021/03/04 01:53:00;;;;;;;21.15;4.72;;;;;;;;;;5069121;28;20028;-37
2021/03/04 01:55:27;;;;;;;17.85;4.05;;;;;;;;;;5070186;28;20107;-37
2021/03/04 01:57:56;;;;;;;20.38;4.05;;;;;;;;;;5070218;28;20017;-39
2021/03/04 02:00:24;;;;;;;13.70;3.78;;;;;;;;;;5069952;28;20480;-39
2021/03/04 02:02:51;;;;;;;13.63;3.75;;;;;;;;;;5069851;28;20068;-39
2021/03/04 02:05:18;;;;;;;17.85;3.70;;;;;;;;;;5069905;28;20025;-37
2021/03/04 02:07:45;;;;;;;16.20;3.40;;;;;;;;;;5070204;28;20461;-37
2021/03/04 02:10:12;;;;;;;23.90;3.63;;;;;;;;;;5070666;28;20055;-37
2021/03/04 02:12:39;;;;;;;16.25;4.10;;;;;;;;;;5070636;28;20016;-38
2021/03/04 02:15:09;;;;;;;15.80;3.90;;;;;;;;;;5069865;28;20358;-37
2021/03/04 02:17:39;;;;;;;18.60;3.83;;;;;;;;;;5070007;28;20470;-36
2021/03/04 02:20:08;;;;;;;16.70;4.10;;;;;;;;;;5070310;28;20025;-37
2021/03/04 02:22:35;;;;;;;11.63;3.70;;;;;;;;;;5070302;28;20029;-36
2021/03/04 02:25:05;;;;;;;17.88;3.90;;;;;;;;;;5069784;28;20021;-36
2021/03/04 02:27:32;;;;;;;18.63;4.10;;;;;;;;;;5070322;28;20108;-36
2021/03/04 02:30:02;;;;;;;22.30;4.38;;;;;;;;;;5069539;28;21164;-38
2021/03/04 02:32:29;;;;;;;12.60;3.40;;;;;;;;;;5070098;28;20037;-37
2021/03/04 02:35:09;;;;;;;13.15;3.80;;;;;;;;;;5069866;28;20069;-37
2021/03/04 02:37:41;;;;;;;17.73;3.63;;;;;;;;;;5070374;28;20033;-38
2021/03/04 02:40:09;;;;;;;17.08;3.97;;;;;;;;;;5069524;28;20025;-37
2021/03/04 02:42:38;;;;;;;16.52;3.65;;;;;;;;;;5070331;28;20021;-40
2021/03/04 02:45:07;;;;;;;15.93;3.70;;;;;;;;;;5066508;28;20041;-38
2021/03/04 02:47:34;;;;;;;19.35;3.38;;;;;;;;;;5073883;28;20051;-42
2021/03/04 02:50:01;;;;;;;26.30;4.40;;;;;;;;;;5072904;28;20031;-44
2021/03/04 02:52:28;;;;;;;21.65;3.60;;;;;;;;;;5074847;28;20491;-42
2021/03/04 02:54:56;;;;;;;21.05;4.00;;;;;;;;;;5073728;28;20028;-42
2021/03/04 02:57:24;;;;;;;21.05;3.78;;;;;;;;;;5064574;28;20033;-36
2021/03/04 02:59:52;;;;;;;17.63;3.63;;;;;;;;;;5064582;28;20025;-35
2021/03/04 03:02:19;;;;;;;19.15;3.17;;;;;;;;;;5063958;28;20028;-37
2021/03/04 03:04:47;;;;;;;17.15;3.35;;;;;;;;;;5062955;28;20105;-35
2021/03/04 03:07:15;;;;;;;18.10;3.35;;;;;;;;;;5063082;28;20051;-36
2021/03/04 03:09:43;;;;;;;15.90;3.35;;;;;;;;;;5058244;28;20107;-37
2021/03/04 03:12:11;;;;;;;18.90;3.40;;;;;;;;;;5060843;28;20131;-39
2021/03/04 03:14:38;;;;;;;15.38;3.72;;;;;;;;;;5067433;28;20146;-38
2021/03/04 03:17:06;;;;;;;17.45;3.42;;;;;;;;;;5053921;28;20029;-37
2021/03/04 03:19:33;;;;;;;11.00;3.28;;;;;;;;;;5054735;28;20032;-38
2021/03/04 03:22:01;;;;;;;32.08;4.65;;;;;;;;;;5054809;28;20029;-38
2021/03/04 03:24:28;;;;;;;13.65;3.85;;;;;;;;;;5054794;28;20029;-36
2021/03/04 03:26:55;;;;;;;21.15;3.35;;;;;;;;;;5054634;28;20358;-38
2021/03/04 03:29:22;;;;;;;23.40;3.58;;;;;;;;;;5054403;28;20029;-37
2021/03/04 03:31:50;;;;;;;17.52;3.72;;;;;;;;;;5054797;28;20031;-39
2021/03/04 03:34:17;;;;;;;35.20;4.57;;;;;;;;;;5069886;28;20444;-39
2021/03/04 03:36:45;;;;;;;23.83;3.88;;;;;;;;;;5054421;28;20091;-38
2021/03/04 03:39:12;;;;;;;19.80;4.13;;;;;;;;;;5054612;28;20017;-39
2021/03/04 03:41:40;;;;;;;16.98;3.22;;;;;;;;;;5069627;28;20032;-36
2021/03/04 03:44:12;;;;;;;14.02;3.30;;;;;;;;;;5054207;28;20029;-38
2021/03/04 03:46:39;;;;;;;19.17;3.80;;;;;;;;;;5054432;28;20025;-37
2021/03/04 03:49:07;;;;;;;17.63;4.05;;;;;;;;;;5064872;28;20032;-38
2021/03/04 03:51:34;;;;;;;21.88;3.42;;;;;;;;;;5074138;28;20518;-39
2021/03/04 03:54:03;;;;;;;12.63;4.15;;;;;;;;;;5074266;28;20064;-38
2021/03/04 03:56:30;;;;;;;16.88;3.55;;;;;;;;;;5073857;28;20477;-37
2021/03/04 03:59:01;;;;;;;13.43;3.80;;;;;;;;;;5072946;28;20051;-39
2021/03/04 04:01:32;;;;;;;16.38;3.85;;;;;;;;;;5073968;28;20036;-37
2021/03/04 04:03:59;;;;;;;18.13;3.83;;;;;;;;;;5074016;28;20100;-37
2021/03/04 04:06:28;;;;;;;22.45;3.80;;;;;;;;;;5074076;28;20032;-40
2021/03/04 04:08:55;;;;;;;24.27;5.32;;;;;;;;;;5068963;28;20016;-36
2021/03/04 04:11:30;;;;;;;28.92;5.00;;;;;;;;;;5072527;28;20142;-35
2021/03/04 04:13:57;;;;;;;23.48;4.57;;;;;;;;;;5073204;28;20111;-36
2021/03/04 04:16:26;;;;;;;27.25;5.13;;;;;;;;;;5073036;28;20163;-37
2021/03/04 04:18:53;;;;;;;19.27;4.35;;;;;;;;;;5071715;28;20029;-38
2021/03/04 04:21:20;;;;;;;31.52;4.72;;;;;;;;;;5072417;28;20020;-36
2021/03/04 04:23:48;;;;;;;19.77;4.18;;;;;;;;;;5072866;28;20036;-37
2021/03/04 04:26:15;;;;;;;26.52;4.97;;;;;;;;;;5072708;28;20025;-38
2021/03/04 04:28:44;;;;;;;21.63;4.00;;;;;;;;;;5073205;28;20017;-37
2021/03/04 04:31:11;;;;;;;16.65;4.18;;;;;;;;;;5072617;28;20066;-39
2021/03/04 04:33:38;;;;;;;26.13;5.70;;;;;;;;;;5072962;28;20468;-36
2021/03/04 04:36:06;;;;;;;36.65;6.13;;;;;;;;;;5072600;28;20037;-35
2021/03/04 04:38:33;;;;;;;25.23;4.93;;;;;;;;;;5071082;28;20028;-39
2021/03/04 04:41:00;;;;;;;26.98;5.35;;;;;;;;;;5072924;28;20031;-39
2021/03/04 04:43:27;;;;;;;15.85;4.88;;;;;;;;;;5072244;28;20484;-38
2021/03/04 04:45:54;;;;;;;28.15;5.60;;;;;;;;;;5072500;28;20510;-39
2021/03/04 04:48:21;;;;;;;28.02;5.13;;;;;;;;;;5071990;28;20414;-39
2021/03/04 04:50:48;;;;;;;21.63;5.07;;;;;;;;;;5072782;28;20028;-36
2021/03/04 04:53:15;;;;;;;16.60;4.13;;;;;;;;;;5070812;28;20031;-38
2021/03/04 04:55:42;;;;;;;9.35;3.28;;;;;;;;;;5072390;28;20041;-37
2021/03/04 04:58:09;;;;;;;14.30;2.95;;;;;;;;;;5072026;28;20373;-38
2021/03/04 05:00:36;;;;;;;15.15;3.20;;;;;;;;;;5072630;28;20035;-39
2021/03/04 05:03:03;;;;;;;25.38;4.03;;;;;;;;;;5070521;28;20023;-40
2021/03/04 05:05:30;;;;;;;26.42;3.88;;;;;;;;;;5070704;28;20074;-37
2021/03/04 05:07:57;;;;;;;11.65;3.25;;;;;;;;;;5071477;28;20434;-38
2021/03/04 05:10:24;;;;;;;12.48;3.25;;;;;;;;;;5071876;28;20025;-37
2021/03/04 05:12:51;;;;;;;12.63;3.38;;;;;;;;;;5070588;28;20416;-41
2021/03/04 05:15:20;;;;;;;12.27;3.58;;;;;;;;;;5071951;28;20381;-40
2021/03/04 05:17:47;;;;;;;10.70;3.45;;;;;;;;;;5072124;28;20146;-37
2021/03/04 05:20:14;;;;;;;10.52;3.47;;;;;;;;;;5071876;28;20020;-39
2021/03/04 05:22:41;;;;;;;13.38;3.38;;;;;;;;;;5072049;28;20029;-40
2021/03/04 05:25:09;;;;;;;8.65;3.75;;;;;;;;;;5071376;28;20016;-37
2021/03/04 05:27:36;;;;;;;15.85;4.47;;;;;;;;;;5072220;28;20024;-38
2021/03/04 05:30:03;;;;;;;16.73;4.20;;;;;;;;;;5071913;28;20052;-39
2021/03/04 05:32:30;;;;;;;10.40;4.28;;;;;;;;;;5072107;28;20025;-37
2021/03/04 05:34:57;;;;;;;15.75;4.55;;;;;;;;;;5071028;28;20032;-37
2021/03/04 05:37:24;;;;;;;16.63;4.43;;;;;;;;;;5071623;28;20397;-37
2021/03/04 05:39:51;;;;;;;13.35;4.53;;;;;;;;;;5071458;28;20021;-37
2021/03/04 05:42:19;;;;;;;6.97;3.40;;;;;;;;;;5071816;28;20031;-37
2021/03/04 05:44:46;;;;;;;7.55;3.38;;;;;;;;;;5071349;28;20032;-37
2021/03/04 05:47:13;;;;;;;9.82;3.60;;;;;;;;;;5071636;28;20024;-37
2021/03/04 05:49:48;;;;;;;9.90;3.05;;;;;;;;;;5071063;28;20504;-37
2021/03/04 05:52:17;;;;;;;13.05;3.75;;;;;;;;;;5071964;28;20431;-38
2021/03/04 05:54:47;;;;;;;10.68;3.03;;;;;;;;;;5069721;28;20028;-38
2021/03/04 05:57:15;;;;;;;12.10;3.45;;;;;;;;;;5071524;28;20028;-38
2021/03/04 05:59:42;;;;;;;12.02;3.17;;;;;;;;;;5071049;28;20089;-38
2021/03/04 06:02:10;;;;;;;8.68;2.75;;;;;;;;;;5071839;28;20036;-39
2021/03/04 06:04:37;;;;;;;7.25;2.88;;;;;;;;;;5070230;28;20024;-39
2021/03/04 06:07:04;;;;;;;14.52;3.10;;;;;;;;;;5070747;28;20052;-37
2021/03/04 06:09:31;;;;;;;10.93;2.92;;;;;;;;;;5071676;28;20025;-38
2021/03/04 06:12:02;;;;;;;10.88;3.05;;;;;;;;;;5071004;28;20104;-38
2021/03/04 06:14:29;;;;;;;8.52;3.15;;;;;;;;;;5070176;28;20029;-36
2021/03/04 06:16:56;;;;;;;8.20;2.35;;;;;;;;;;5070883;28;20032;-37
2021/03/04 06:19:23;;;;;;;8.65;2.42;;;;;;;;;;5071171;28;20021;-39
2021/03/04 06:21:59;;;;;;;10.45;2.42;;;;;;;;;;5073299;28;20024;-39
2021/03/04 06:24:26;;;;;;;5.68;2.45;;;;;;;;;;5075699;28;20100;-38
2021/03/04 06:26:54;;;;;;;12.02;2.40;;;;;;;;;;5074908;28;20025;-38
2021/03/04 06:29:23;;;;;;;7.57;2.45;;;;;;;;;;5075422;28;20535;-38
2021/03/04 06:32:06;;;;;;;11.02;2.53;;;;;;;;;;5074776;28;20515;-38
2021/03/04 06:34:33;;;;;;;8.60;2.45;;;;;;;;;;5075459;28;20024;-38
2021/03/04 06:37:04;;;;;;;8.85;2.75;;;;;;;;;;5074598;28;20527;-37
2021/03/04 06:39:46;;;;;;;7.40;2.97;;;;;;;;;;5075195;28;20024;-37
2021/03/04 06:42:14;;;;;;;8.52;2.63;;;;;;;;;;5074728;28;20415;-39
2021/03/04 06:44:48;;;;;;;9.40;2.50;;;;;;;;;;5074951;28;20037;-37
2021/03/04 06:47:22;;;;;;;5.75;2.53;;;;;;;;;;5074564;28;20031;-39
2021/03/04 06:49:49;;;;;;;10.02;2.83;;;;;;;;;;5075340;28;20084;-38
2021/03/04 06:52:28;;;;;;;12.65;2.58;;;;;;;;;;5074512;28;20054;-38
2021/03/04 06:54:55;;;;;;;6.32;2.40;;;;;;;;;;5074722;28;20032;-37
2021/03/04 06:57:23;;;;;;;10.05;2.40;;;;;;;;;;5056457;28;20032;-38
2021/03/04 06:59:50;;;;;;;6.38;2.58;;;;;;;;;;5074875;28;20063;-38
2021/03/04 07:02:24;;;;;;;11.45;2.67;;;;;;;;;;5074421;28;20108;-37
2021/03/04 07:04:55;;;;;;;8.88;2.63;;;;;;;;;;5074639;28;20082;-37
2021/03/04 07:07:24;;;;;;;12.88;3.30;;;;;;;;;;5074391;28;20082;-38
2021/03/04 07:09:52;;;;;;;7.93;2.47;;;;;;;;;;5074388;28;20035;-37
2021/03/04 07:12:20;;;;;;;8.07;2.90;;;;;;;;;;5074717;28;20032;-37
2021/03/04 07:14:50;;;;;;;7.63;2.70;;;;;;;;;;5074241;28;20021;-38
2021/03/04 07:17:18;;;;;;;10.10;2.92;;;;;;;;;;5074301;28;20066;-37
2021/03/04 07:19:49;;;;;;;5.13;2.83;;;;;;;;;;5074105;28;20484;-37
2021/03/04 07:22:16;;;;;;;10.10;2.97;;;;;;;;;;5074320;28;20039;-38
2021/03/04 07:24:45;;;;;;;10.30;3.05;;;;;;;;;;5074005;28;20024;-39
2021/03/04 07:27:14;;;;;;;13.10;3.05;;;;;;;;;;5074146;28;20047;-39
2021/03/04 07:29:41;;;;;;;12.40;3.10;;;;;;;;;;5073754;28;20048;-41
2021/03/04 07:32:09;;;;;;;12.55;3.33;;;;;;;;;;5074277;28;20028;-41
2021/03/04 07:34:36;;;;;;;6.35;2.88;;;;;;;;;;5073797;28;20047;-39
2021/03/04 07:37:04;;;;;;;12.18;3.05;;;;;;;;;;5074010;28;20112;-37
2021/03/04 07:39:40;;;;;;;7.13;2.50;;;;;;;;;;5073465;28;20153;-37
2021/03/04 07:42:20;;;;;;;6.45;2.30;;;;;;;;;;5074255;28;20099;-38
2021/03/04 07:44:47;;;;;;;10.07;2.47;;;;;;;;;;5073241;28;20044;-38
2021/03/04 07:47:14;;;;;;;6.22;2.45;;;;;;;;;;5074117;28;20025;-38
2021/03/04 07:49:43;;;;;;;10.02;2.40;;;;;;;;;;5073385;28;20171;-41
2021/03/04 07:52:14;;;;;;;8.98;2.60;;;;;;;;;;5074068;28;20025;-38
2021/03/04 07:54:42;;;;;;;9.13;2.63;;;;;;;;;;5073257;28;20111;-40
2021/03/04 07:57:10;;;;;;;5.43;2.20;;;;;;;;;;5073840;28;20036;-37
2021/03/04 07:59:48;;;;;;;13.63;2.35;;;;;;;;;;5073679;28;20476;-37
2021/03/04 08:02:26;;;;;;;8.93;2.42;;;;;;;;;;5073784;28;20512;-37
2021/03/04 08:04:53;;;;;;;8.57;2.58;;;;;;;;;;5073200;28;20052;-39
2021/03/04 08:07:27;;;;;;;10.35;3.15;;;;;;;;;;5073475;28;20017;-38
2021/03/04 08:10:05;;;;;;;10.23;3.33;;;;;;;;;;5073207;28;20071;-37
2021/03/04 08:12:32;;;;;;;9.93;3.55;;;;;;;;;;5072995;28;20050;-38
2021/03/04 08:14:59;;;;;;;15.00;3.63;;;;;;;;;;5073328;28;20036;-37
2021/03/04 08:17:36;;;;;;;9.00;3.47;;;;;;;;;;5072902;28;20017;-39
2021/03/04 08:20:07;;;;;;;15.18;3.42;;;;;;;;;;5073176;28;20020;-38
2021/03/04 08:22:34;;;;;;;13.23;3.53;;;;;;;;;;5073104;28;20021;-37
2021/03/04 08:25:05;;;;;;;13.63;3.97;;;;;;;;;;5073150;28;20025;-37
2021/03/04 08:27:38;;;;;;;12.20;3.77;;;;;;;;;;5072603;28;20032;-37
2021/03/04 08:30:06;;;;;;;10.93;2.97;;;;;;;;;;5072913;28;20511;-39
2021/03/04 08:32:33;;;;;;;9.10;3.33;;;;;;;;;;5072861;28;20442;-38
2021/03/04 08:34:59;;;;;;;10.70;3.47;;;;;;;;;;5072968;28;20085;-39
2021/03/04 08:37:28;;;;;;;14.25;3.63;;;;;;;;;;5072359;28;20437;-36
2021/03/04 08:40:02;;;;;;;11.90;3.17;;;;;;;;;;5072629;28;20129;-38
2021/03/04 08:42:29;;;;;;;8.93;3.70;;;;;;;;;;5072352;28;20067;-38
2021/03/04 08:44:56;;;;;;;13.75;3.97;;;;;;;;;;5071848;28;20098;-37
2021/03/04 08:47:23;;;;;;;10.65;3.42;;;;;;;;;;5072268;28;20498;-39
2021/03/04 08:49:54;;;;;;;23.08;3.63;;;;;;;;;;5072728;28;20032;-39
2021/03/04 08:52:22;;;;;;;55.75;5.50;;;;;;;;;;5072264;28;20104;-37
2021/03/04 08:54:50;;;;;;;23.77;3.88;;;;;;;;;;5071131;28;20453;-38
2021/03/04 08:57:27;;;;;;;26.67;5.15;;;;;;;;;;5072326;28;20028;-37
2021/03/04 09:00:03;;;;;;;20.98;4.35;;;;;;;;;;5072462;28;20438;-39
2021/03/04 09:02:30;;;;;;;18.15;4.70;;;;;;;;;;5071988;28;20025;-37
2021/03/04 09:04:57;;;;;;;26.45;4.53;;;;;;;;;;5072441;28;20032;-39
2021/03/04 09:07:29;;;;;;;27.77;4.30;;;;;;;;;;5072484;28;20036;-38
2021/03/04 09:10:03;;;;;;;25.20;4.37;;;;;;;;;;5071609;28;20085;-39
2021/03/04 09:12:30;;;;;;;26.95;5.50;;;;;;;;;;5072363;28;20028;-38
2021/03/04 09:15:00;;;;;;;25.40;4.30;;;;;;;;;;5071730;28;20547;-38
2021/03/04 09:17:27;;;;;;;20.98;4.80;;;;;;;;;;5072282;28;20063;-40
2021/03/04 09:19:57;;;;;;;24.63;4.40;;;;;;;;;;5071406;28;20499;-40
2021/03/04 09:22:24;;;;;;;19.58;4.63;;;;;;;;;;5072156;28;20020;-38
2021/03/04 09:24:51;;;;;;;16.02;4.00;;;;;;;;;;5070310;28;20020;-38
2021/03/04 09:27:20;;;;;;;17.08;3.90;;;;;;;;;;5070792;28;20465;-40
2021/03/04 09:29:47;;;;;;;14.40;3.78;;;;;;;;;;5071383;28;20029;-38
2021/03/04 09:32:14;;;;;;;12.52;3.30;;;;;;;;;;5072184;28;20504;-40
2021/03/04 09:34:45;;;;;;;15.25;3.88;;;;;;;;;;5071133;28;20029;-40
2021/03/04 09:37:28;;;;;;;12.05;3.40;;;;;;;;;;5071834;28;20062;-39
2021/03/04 09:39:56;;;;;;;21.58;4.10;;;;;;;;;;5071016;28;20059;-39
2021/03/04 09:42:43;;;;;;;21.10;4.20;;;;;;;;;;5071927;28;20028;-40
2021/03/04 09:45:11;;;;;;;20.48;4.47;;;;;;;;;;5071164;28;20051;-38
2021/03/04 09:47:43;;;;;;;31.15;5.38;;;;;;;;;;5071593;28;20028;-40
2021/03/04 09:50:25;;;;;;;33.40;5.72;;;;;;;;;;5071326;28;20468;-38
2021/03/04 09:53:12;;;;;;;22.88;4.57;;;;;;;;;;5071755;28;20111;-41
2021/03/04 09:55:40;;;;;;;22.05;4.47;;;;;;;;;;5070077;28;20104;-40
2021/03/04 09:58:17;;;;;;;44.75;5.13;;;;;;;;;;5070301;28;20090;-40
2021/03/04 10:00:45;;;;;;;26.27;4.90;;;;;;;;;;5071225;28;20108;-40
2021/03/04 10:03:13;;;;;;;31.38;4.40;;;;;;;;;;5071571;28;20031;-39
2021/03/04 10:05:50;;;;;;;42.28;5.07;;;;;;;;;;5071161;28;20583;-38
2021/03/04 10:08:20;;;;;;;29.30;4.68;;;;;;;;;;5071486;28;20023;-39
2021/03/04 10:10:50;;;;;;;29.42;4.93;;;;;;;;;;5071167;28;20579;-37
2021/03/04 10:13:27;;;;;;;28.10;4.55;;;;;;;;;;5071537;28;20124;-38
2021/03/04 10:15:54;;;;;;;28.60;4.88;;;;;;;;;;5070952;28;20435;-37
2021/03/04 10:18:21;;;;;;;29.10;4.82;;;;;;;;;;5071566;28;20499;-37
2021/03/04 10:20:48;;;;;;;33.97;5.13;;;;;;;;;;5070663;28;20055;-36
2021/03/04 10:23:16;;;;;;;21.85;4.25;;;;;;;;;;5071491;28;20385;-39
2021/03/04 10:25:44;;;;;;;25.13;4.15;;;;;;;;;;5071370;28;20032;-38
2021/03/04 10:28:11;;;;;;;18.48;4.28;;;;;;;;;;5071145;28;20048;-37
2021/03/04 10:30:38;;;;;;;20.67;4.10;;;;;;;;;;5071244;28;20025;-40
2021/03/04 10:33:06;;;;;;;19.17;3.67;;;;;;;;;;5070863;28;20028;-37
2021/03/04 10:35:35;;;;;;;14.38;3.40;;;;;;;;;;5071198;28;20381;-37
2021/03/04 10:38:02;;;;;;;21.98;3.65;;;;;;;;;;5070646;28;20020;-38
2021/03/04 10:40:29;;;;;;;15.57;3.25;;;;;;;;;;5071264;28;20029;-39
2021/03/04 10:42:56;;;;;;;20.15;3.75;;;;;;;;;;5070938;28;20027;-39
2021/03/04 10:45:23;;;;;;;22.33;4.03;;;;;;;;;;5070989;28;20044;-40
2021/03/04 10:47:51;;;;;;;12.38;3.30;;;;;;;;;;5070783;28;20074;-37
2021/03/04 10:50:19;;;;;;;17.05;3.65;;;;;;;;;;5071392;28;20032;-40
2021/03/04 10:52:46;;;;;;;11.00;3.10;;;;;;;;;;5070551;28;20086;-40
2021/03/04 10:55:16;;;;;;;19.88;3.30;;;;;;;;;;5071212;28;20078;-40
2021/03/04 10:57:43;;;;;;;24.73;3.67;;;;;;;;;;5066963;28;20121;-37
2021/03/04 11:00:11;;;;;;;17.45;3.78;;;;;;;;;;5069224;28;20028;-38
2021/03/04 11:02:38;;;;;;;14.45;3.67;;;;;;;;;;5068448;28;20029;-39
2021/03/04 11:05:06;;;;;;;17.00;3.67;;;;;;;;;;5069279;28;20025;-37
2021/03/04 11:07:34;;;;;;;19.33;3.38;;;;;;;;;;5072696;28;20029;-37
2021/03/04 11:10:01;;;;;;;18.17;3.10;;;;;;;;;;5074128;28;20128;-41
2021/03/04 11:12:28;;;;;;;15.68;3.17;;;;;;;;;;5074753;28;20129;-42
2021/03/04 11:14:55;;;;;;;17.58;2.90;;;;;;;;;;5074082;28;20103;-48
2021/03/04 11:17:22;;;;;;;19.65;3.33;;;;;;;;;;5074322;28;20058;-48
2021/03/04 11:19:49;;;;;;;19.27;3.60;;;;;;;;;;5074050;28;20070;-42
2021/03/04 11:22:17;;;;;;;31.05;5.03;;;;;;;;;;5074512;28;20024;-42
2021/03/04 11:24:46;;;;;;;15.27;4.10;;;;;;;;;;5073880;28;20021;-42
2021/03/04 11:27:14;;;;;;;15.30;4.15;;;;;;;;;;5074402;28;20036;-43
2021/03/04 11:29:41;;;;;;;15.73;4.00;;;;;;;;;;5073850;28;20029;-41
2021/03/04 11:32:08;;;;;;;20.40;3.83;;;;;;;;;;5074163;28;20087;-42
2021/03/04 11:34:35;;;;;;;16.17;3.95;;;;;;;;;;5073858;28;20031;-42
2021/03/04 11:37:02;;;;;;;21.02;3.67;;;;;;;;;;5073023;28;20036;-42
2021/03/04 11:39:30;;;;;;;11.70;3.42;;;;;;;;;;5071959;28;20021;-42
2021/03/04 11:41:56;;;;;;;10.45;3.22;;;;;;;;;;5069681;28;20021;-43
2021/03/04 11:44:23;;;;;;;11.70;3.92;;;;;;;;;;5067758;28;20610;-41
2021/03/04 11:46:50;;;;;;;12.73;3.28;;;;;;;;;;5064293;28;20025;-42
2021/03/04 11:49:18;;;;;;;9.43;2.65;;;;;;;;;;5062660;28;20025;-42
2021/03/04 11:51:45;;;;;;;16.95;3.50;;;;;;;;;;5069933;28;20021;-42
2021/03/04 11:54:12;;;;;;;15.32;2.90;;;;;;;;;;5073000;28;20036;-42
2021/03/04 11:56:39;;;;;;;14.35;3.63;;;;;;;;;;5063401;28;20105;-36
2021/03/04 11:59:11;;;;;;;17.48;3.75;;;;;;;;;;5063365;28;20025;-36
2021/03/04 12:01:39;;;;;;;20.30;3.95;;;;;;;;;;5061436;28;20032;-39
2021/03/04 12:04:06;;;;;;;22.02;4.32;;;;;;;;;;5083480;28;20108;-43
2021/03/04 12:06:34;;;;;;;28.42;3.80;;;;;;;;;;5064283;28;20047;-40
2021/03/04 12:09:01;;;;;;;20.77;3.50;;;;;;;;;;5061796;28;20139;-42
2021/03/04 12:11:28;;;;;;;19.23;4.18;;;;;;;;;;5077804;28;20082;-42
2021/03/04 12:13:55;;;;;;;24.90;4.78;;;;;;;;;;5067498;28;20124;-43
2021/03/04 12:16:22;;;;;;;37.67;4.30;;;;;;;;;;5088462;28;20044;-43
2021/03/04 12:18:49;;;;;;;29.15;4.20;;;;;;;;;;5072485;28;20024;-43
2021/03/04 12:21:17;;;;;;;30.40;4.38;;;;;;;;;;5072823;28;20021;-40
2021/03/04 12:23:44;;;;;;;37.22;4.25;;;;;;;;;;5073164;28;20028;-42
2021/03/04 12:26:12;;;;;;;21.50;3.90;;;;;;;;;;5072398;28;20617;-40
2021/03/04 12:28:39;;;;;;;33.13;4.30;;;;;;;;;;5068263;28;20021;-40
2021/03/04 12:31:06;;;;;;;22.67;3.97;;;;;;;;;;5071821;28;20040;-40
2021/03/04 12:33:33;;;;;;;25.75;3.90;;;;;;;;;;5072817;28;20028;-42
2021/03/04 12:36:00;;;;;;;25.15;3.92;;;;;;;;;;5064167;28;20037;-43
2021/03/04 12:38:27;;;;;;;18.17;3.33;;;;;;;;;;5076547;28;20021;-43
2021/03/04 12:40:54;;;;;;;24.90;3.40;;;;;;;;;;5064205;28;20024;-43
2021/03/04 12:43:21;;;;;;;27.80;4.32;;;;;;;;;;5087803;28;20024;-43
2021/03/04 12:45:48;;;;;;;30.08;3.35;;;;;;;;;;5071825;28;20835;-41
2021/03/04 12:48:15;;;;;;;29.35;4.43;;;;;;;;;;5069809;28;20142;-40
2021/03/04 12:50:42;;;;;;;28.27;3.63;;;;;;;;;;5052793;28;20017;-42
2021/03/04 12:53:10;;;;;;;26.05;4.18;;;;;;;;;;5052209;28;20032;-41
2021/03/04 12:55:36;;;;;;;26.70;4.20;;;;;;;;;;5056347;28;20047;-40
2021/03/04 12:58:04;;;;;;;20.70;3.50;;;;;;;;;;5070770;28;20033;-39
2021/03/04 13:00:31;;;;;;;22.10;3.83;;;;;;;;;;5069996;28;20028;-40
2021/03/04 13:02:58;;;;;;;15.40;3.10;;;;;;;;;;5071142;28;20025;-41
2021/03/04 13:05:26;;;;;;;19.83;4.05;;;;;;;;;;5071573;28;20017;-41
2021/03/04 13:07:53;;;;;;;30.42;3.95;;;;;;;;;;5071371;28;20025;-39
2021/03/04 13:10:20;;;;;;;28.17;4.03;;;;;;;;;;5071264;28;20029;-40
2021/03/04 13:12:47;;;;;;;26.30;3.35;;;;;;;;;;5071651;28;20465;-39
2021/03/04 13:15:15;;;;;;;25.25;3.65;;;;;;;;;;5071851;28;20411;-39
2021/03/04 13:17:42;;;;;;;33.58;3.55;;;;;;;;;;5072358;28;20070;-40
2021/03/04 13:20:09;;;;;;;29.27;3.50;;;;;;;;;;5071743;28;20023;-40
2021/03/04 13:22:36;;;;;;;19.75;3.30;;;;;;;;;;5072151;28;20020;-42
2021/03/04 13:25:03;;;;;;;20.50;3.28;;;;;;;;;;5062637;28;20104;-41
2021/03/04 13:27:30;;;;;;;15.30;2.88;;;;;;;;;;5051995;28;20035;-41
2021/03/04 13:29:57;;;;;;;15.20;3.35;;;;;;;;;;5051414;28;20032;-41
2021/03/04 13:32:24;;;;;;;14.57;3.33;;;;;;;;;;5052225;28;20060;-40
2021/03/04 13:34:51;;;;;;;12.43;3.10;;;;;;;;;;5068779;28;20104;-40
2021/03/04 13:37:18;;;;;;;18.90;3.28;;;;;;;;;;5071878;28;20036;-40
2021/03/04 13:39:46;;;;;;;15.77;3.35;;;;;;;;;;5071331;28;20616;-39
2021/03/04 13:42:13;;;;;;;28.60;3.20;;;;;;;;;;5072061;28;20021;-41
2021/03/04 13:44:40;;;;;;;27.73;3.60;;;;;;;;;;5057753;28;20041;-41
2021/03/04 13:47:07;;;;;;;13.00;3.25;;;;;;;;;;5054076;28;20032;-42
2021/03/04 13:49:34;;;;;;;17.77;2.83;;;;;;;;;;5071840;28;20016;-40
2021/03/04 13:52:01;;;;;;;37.35;3.35;;;;;;;;;;5071356;28;20110;-40
2021/03/04 13:54:29;;;;;;;27.58;3.33;;;;;;;;;;5087335;28;20414;-41
2021/03/04 13:56:56;;;;;;;12.95;3.13;;;;;;;;;;5071064;28;20056;-41
2021/03/04 13:59:23;;;;;;;21.90;3.33;;;;;;;;;;5071619;28;20032;-40
2021/03/04 14:01:51;;;;;;;23.63;3.05;;;;;;;;;;5071474;28;20048;-40
2021/03/04 14:04:18;;;;;;;17.80;3.28;;;;;;;;;;5071499;28;20083;-41
2021/03/04 14:06:45;;;;;;;18.30;3.00;;;;;;;;;;5071144;28;20028;-41
2021/03/04 14:09:12;;;;;;;20.85;3.08;;;;;;;;;;5071560;28;20419;-42
2021/03/04 14:11:39;;;;;;;29.50;4.10;;;;;;;;;;5070968;28;20048;-41
2021/03/04 14:14:06;;;;;;;26.63;4.20;;;;;;;;;;5068468;28;20055;-42
2021/03/04 14:16:36;;;;;;;36.65;4.32;;;;;;;;;;5071251;28;20119;-41
2021/03/04 14:19:03;;;;;;;19.02;4.18;;;;;;;;;;5071644;28;20024;-40
2021/03/04 14:21:31;;;;;;;27.45;4.10;;;;;;;;;;5071143;28;20028;-41
2021/03/04 14:23:58;;;;;;;38.05;5.40;;;;;;;;;;5071649;28;20027;-41
2021/03/04 14:26:24;;;;;;;24.50;4.30;;;;;;;;;;5071479;28;20105;-42
2021/03/04 14:28:51;;;;;;;39.40;4.60;;;;;;;;;;5071246;28;20387;-42
2021/03/04 14:31:19;;;;;;;27.05;4.72;;;;;;;;;;5071655;28;20528;-41
2021/03/04 14:33:45;;;;;;;35.30;4.85;;;;;;;;;;5070987;28;20016;-41
2021/03/04 14:36:13;;;;;;;38.03;4.00;;;;;;;;;;5069914;28;20032;-41